Time;durP1;ratioP1;P1;durP2;ratioP2;P2;SDS_P1;SDS_P2;PMS_P1;PMS_P2;Temp;Humidity;BMP_temperature;BMP_pressure;BME280_temperature;BME280_humidity;BME280_pressure;Samples;Min_cycle;Max_cycle;Signal;HPM_P1;HPM_P2
2021/10/19 00:01:47;;;;;;;19.70;12.07;;;8.40;99.90;;;;;;4996547;28;20046;-85
2021/10/19 00:04:16;;;;;;;21.42;12.90;;;8.30;99.90;;;;;;4997171;28;20455;-84
2021/10/19 00:06:42;;;;;;;22.38;13.02;;;9.40;99.90;;;;;;4997038;28;20026;-86
2021/10/19 00:09:08;;;;;;;24.98;13.35;;;;;;;;;;4998255;28;20033;-87
2021/10/19 00:11:36;;;;;;;22.98;13.38;;;8.50;99.90;;;;;;4990567;28;20404;-86
2021/10/19 00:14:02;;;;;;;22.17;13.10;;;8.50;99.90;;;;;;5013340;28;20027;-88
2021/10/19 00:16:28;;;;;;;19.25;11.90;;;8.60;99.90;;;;;;4996370;28;20030;-83
2021/10/19 00:18:53;;;;;;;21.83;12.30;;;8.60;99.90;;;;;;4995145;28;20118;-85
2021/10/19 00:21:21;;;;;;;23.75;12.25;;;8.20;99.90;;;;;;4994148;28;20498;-84
2021/10/19 00:23:50;;;;;;;18.75;11.95;;;8.10;99.90;;;;;;4999125;28;20022;-85
2021/10/19 00:26:15;;;;;;;19.95;11.18;;;8.50;99.90;;;;;;4993859;28;20026;-86
2021/10/19 00:28:42;;;;;;;22.30;12.18;;;;;;;;;;4994087;28;20030;-88
2021/10/19 00:31:07;;;;;;;17.45;11.80;;;8.60;99.90;;;;;;4996063;28;20053;-85
2021/10/19 00:33:42;;;;;;;19.85;12.10;;;10.10;99.90;;;;;;4996521;28;20092;-84
2021/10/19 00:36:08;;;;;;;18.05;12.00;;;10.80;99.90;;;;;;4996184;28;20073;-86
2021/10/19 00:38:42;;;;;;;20.35;12.35;;;8.50;99.90;;;;;;4993994;28;20033;-84
2021/10/19 00:41:12;;;;;;;21.08;12.05;;;8.50;99.90;;;;;;4991639;28;20080;-83
2021/10/19 00:43:39;;;;;;;20.80;12.77;;;8.60;99.90;;;;;;4994774;28;20121;-80
2021/10/19 00:46:04;;;;;;;20.50;12.85;;;11.50;99.90;;;;;;4998716;28;20293;-86
2021/10/19 00:48:33;;;;;;;19.58;12.15;;;8.40;99.90;;;;;;4996325;28;20123;-80
2021/10/19 00:50:59;;;;;;;18.95;12.15;;;8.60;99.90;;;;;;4996644;28;20512;-87
2021/10/19 00:53:26;;;;;;;22.33;13.70;;;8.70;99.90;;;;;;4997204;28;20498;-83
2021/10/19 00:55:51;;;;;;;21.98;13.02;;;9.60;99.90;;;;;;5004470;28;20023;-85
2021/10/19 00:58:17;;;;;;;22.95;13.52;;;;;;;;;;4996296;28;20029;-84
2021/10/19 01:00:46;;;;;;;21.00;13.35;;;8.70;99.90;;;;;;4998240;28;20555;-86
2021/10/19 01:03:11;;;;;;;21.38;13.55;;;10.20;99.90;;;;;;4992946;28;20023;-86
2021/10/19 01:05:40;;;;;;;19.30;13.10;;;10.50;99.90;;;;;;4995897;28;20038;-87
2021/10/19 01:08:10;;;;;;;25.05;13.75;;;8.80;99.90;;;;;;4995904;28;20029;-83
2021/10/19 01:10:39;;;;;;;26.65;15.50;;;11.10;99.90;;;;;;4992405;28;20015;-84
2021/10/19 01:13:05;;;;;;;26.33;15.23;;;8.60;99.90;;;;;;4998247;28;20037;-85
2021/10/19 01:15:33;;;;;;;25.45;15.88;;;9.20;99.90;;;;;;4992596;28;20026;-86
2021/10/19 01:17:59;;;;;;;25.25;14.98;;;11.70;99.90;;;;;;5001665;28;20029;-84
2021/10/19 01:20:27;;;;;;;26.80;15.18;;;8.60;99.90;;;;;;5001699;28;20034;-84
2021/10/19 01:22:55;;;;;;;29.60;15.88;;;11.10;99.90;;;;;;4995158;28;20050;-86
2021/10/19 01:25:25;;;;;;;27.98;16.38;;;10.90;99.90;;;;;;4991699;28;20542;-86
2021/10/19 01:27:56;;;;;;;29.27;16.30;;;10.50;99.90;;;;;;4995857;28;20034;-82
2021/10/19 01:30:23;;;;;;;29.45;16.67;;;8.90;99.90;;;;;;4995250;28;20603;-85
2021/10/19 01:32:49;;;;;;;28.65;16.70;;;8.60;99.90;;;;;;4997318;28;20125;-85
2021/10/19 01:35:15;;;;;;;26.85;16.80;;;10.60;99.90;;;;;;4995964;28;20081;-85
2021/10/19 01:37:42;;;;;;;27.38;16.55;;;10.80;99.90;;;;;;4997510;28;20570;-86
2021/10/19 01:40:10;;;;;;;27.45;16.75;;;8.70;99.90;;;;;;4997853;28;20050;-83
2021/10/19 01:42:37;;;;;;;25.95;16.45;;;10.80;99.90;;;;;;4996993;28;20412;-84
2021/10/19 01:45:04;;;;;;;28.05;16.85;;;10.30;99.90;;;;;;4994697;28;20030;-81
2021/10/19 01:47:29;;;;;;;26.13;16.88;;;9.00;99.90;;;;;;5000431;28;20034;-85
2021/10/19 01:49:55;;;;;;;28.60;16.63;;;8.80;99.90;;;;;;4999208;28;20480;-84
2021/10/19 01:52:21;;;;;;;25.27;15.70;;;11.90;99.90;;;;;;4993176;28;20035;-86
2021/10/19 01:54:47;;;;;;;26.73;16.90;;;;;;;;;;4993616;28;20038;-83
2021/10/19 01:57:13;;;;;;;25.52;15.25;;;8.80;99.90;;;;;;5008512;28;20027;-85
2021/10/19 01:59:39;;;;;;;25.42;15.82;;;8.80;99.90;;;;;;5000011;28;20058;-84
2021/10/19 02:02:05;;;;;;;25.55;15.65;;;;;;;;;;4996931;28;20420;-83
2021/10/19 02:04:30;;;;;;;26.98;15.95;;;8.90;99.90;;;;;;4998758;28;20073;-86
2021/10/19 02:06:56;;;;;;;27.23;15.88;;;;;;;;;;5005073;28;20036;-87
2021/10/19 02:09:22;;;;;;;25.48;15.85;;;8.90;99.90;;;;;;4997903;28;20031;-88
2021/10/19 02:11:50;;;;;;;25.80;15.77;;;9.00;99.90;;;;;;4997328;28;20038;-84
2021/10/19 02:14:16;;;;;;;25.85;15.90;;;8.90;99.90;;;;;;4997585;28;20030;-86
2021/10/19 02:16:42;;;;;;;30.10;16.33;;;9.90;99.90;;;;;;5000542;28;20027;-85
2021/10/19 02:19:07;;;;;;;24.50;15.43;;;9.00;99.90;;;;;;4994281;28;20027;-85
2021/10/19 02:21:33;;;;;;;24.90;15.18;;;9.70;99.90;;;;;;4999221;28;20019;-83
2021/10/19 02:23:58;;;;;;;25.15;15.13;;;9.10;99.90;;;;;;4997319;28;20045;-87
2021/10/19 02:26:24;;;;;;;24.05;13.95;;;10.20;99.90;;;;;;4996892;28;20399;-86
2021/10/19 02:28:50;;;;;;;24.27;14.20;;;9.20;99.90;;;;;;5002814;28;20030;-84
2021/10/19 02:31:15;;;;;;;21.05;13.60;;;9.80;99.90;;;;;;5002383;28;20061;-89
2021/10/19 02:33:41;;;;;;;18.27;12.35;;;11.40;99.90;;;;;;4998741;28;20538;-83
2021/10/19 02:36:10;;;;;;;20.27;13.30;;;9.20;99.90;;;;;;5003631;28;20557;-87
2021/10/19 02:38:38;;;;;;;24.50;14.05;;;8.70;99.90;;;;;;5002709;28;20038;-86
2021/10/19 02:41:04;;;;;;;21.58;13.57;;;9.30;99.90;;;;;;5000956;28;20030;-85
2021/10/19 02:43:30;;;;;;;24.13;13.60;;;;;;;;;;5001315;28;20026;-87
2021/10/19 02:45:59;;;;;;;22.17;13.80;;;9.30;99.90;;;;;;5002302;28;20030;-82
2021/10/19 02:48:30;;;;;;;22.88;13.07;;;9.10;99.90;;;;;;5018836;28;20090;-86
2021/10/19 02:50:58;;;;;;;20.52;12.55;;;10.30;99.90;;;;;;5017234;28;20042;-89
2021/10/19 02:53:26;;;;;;;21.90;14.23;;;9.30;99.90;;;;;;5003885;28;20024;-84
2021/10/19 02:55:54;;;;;;;20.63;12.80;;;9.30;99.90;;;;;;5003504;28;20018;-83
2021/10/19 02:58:20;;;;;;;22.02;12.80;;;11.80;99.90;;;;;;5003703;28;20022;-83
2021/10/19 03:00:46;;;;;;;21.55;13.27;;;;;;;;;;5018127;28;20029;-83
2021/10/19 03:03:12;;;;;;;20.90;12.77;;;;;;;;;;4999951;28;20026;-87
2021/10/19 03:05:38;;;;;;;22.60;14.13;;;9.40;99.90;;;;;;5001007;28;20025;-83
2021/10/19 03:08:04;;;;;;;20.75;12.32;;;10.80;99.90;;;;;;5001020;28;20030;-85
2021/10/19 03:10:32;;;;;;;21.40;12.35;;;9.50;99.90;;;;;;5000328;28;20022;-85
2021/10/19 03:12:58;;;;;;;20.30;13.02;;;9.50;99.90;;;;;;5000663;28;20037;-86
2021/10/19 03:15:24;;;;;;;18.67;12.43;;;9.50;99.90;;;;;;5001371;28;20030;-81
2021/10/19 03:17:50;;;;;;;18.50;11.75;;;9.60;99.90;;;;;;5001070;28;20026;-85
2021/10/19 03:20:16;;;;;;;17.65;11.73;;;11.70;99.90;;;;;;5001947;28;20030;-84
2021/10/19 03:22:43;;;;;;;20.42;12.07;;;;;;;;;;5000911;28;20077;-84
2021/10/19 03:25:09;;;;;;;19.17;12.52;;;9.60;99.90;;;;;;5001468;28;20027;-88
2021/10/19 03:27:37;;;;;;;20.08;12.35;;;10.00;99.90;;;;;;5002790;28;20057;-86
2021/10/19 03:30:05;;;;;;;18.23;12.02;;;9.60;99.90;;;;;;5012797;28;20030;-86
2021/10/19 03:32:31;;;;;;;19.17;12.25;;;9.10;99.90;;;;;;5001063;28;20096;-87
2021/10/19 03:35:03;;;;;;;19.10;12.50;;;9.90;99.90;;;;;;4998720;28;20113;-84
2021/10/19 03:37:29;;;;;;;19.52;12.15;;;9.80;99.90;;;;;;4995381;28;20037;-85
2021/10/19 03:39:55;;;;;;;17.73;11.55;;;;;;;;;;5016662;28;20456;-84
2021/10/19 03:42:21;;;;;;;20.45;12.32;;;;;;;;;;4999685;28;20038;-84
2021/10/19 03:44:47;;;;;;;19.38;11.57;;;9.70;99.90;;;;;;5002436;28;20132;-84
2021/10/19 03:47:13;;;;;;;16.55;11.80;;;;;;;;;;5001415;28;20054;-84
2021/10/19 03:49:38;;;;;;;18.70;11.63;;;9.70;99.90;;;;;;5002382;28;20251;-84
2021/10/19 03:52:04;;;;;;;19.67;12.45;;;9.90;99.90;;;;;;4998361;28;20481;-84
2021/10/19 03:54:30;;;;;;;20.05;12.50;;;9.70;99.90;;;;;;4999831;28;20031;-84
2021/10/19 03:56:56;;;;;;;19.63;12.73;;;10.30;99.90;;;;;;5018823;28;20084;-85
2021/10/19 03:59:25;;;;;;;20.77;12.35;;;9.80;99.90;;;;;;5004142;28;20034;-85
2021/10/19 04:01:51;;;;;;;22.55;13.50;;;9.80;99.90;;;;;;5002030;28;20073;-83
2021/10/19 04:04:19;;;;;;;20.40;12.85;;;;;;;;;;5001855;28;20121;-84
2021/10/19 04:06:45;;;;;;;22.88;13.02;;;;;;;;;;5004142;28;20061;-83
2021/10/19 04:09:13;;;;;;;20.33;13.13;;;9.80;99.90;;;;;;4996545;28;20117;-86
2021/10/19 04:11:39;;;;;;;20.48;13.52;;;10.20;99.90;;;;;;4990555;28;20038;-85
2021/10/19 04:14:05;;;;;;;20.75;12.88;;;9.80;99.90;;;;;;4991451;28;20122;-82
2021/10/19 04:16:31;;;;;;;21.35;13.25;;;;;;;;;;4995480;28;20481;-86
2021/10/19 04:18:57;;;;;;;22.20;13.70;;;9.80;99.90;;;;;;5001034;28;20046;-85
2021/10/19 04:21:23;;;;;;;22.92;13.30;;;;;;;;;;4997909;28;20034;-86
2021/10/19 04:23:49;;;;;;;21.17;13.30;;;9.80;99.90;;;;;;4997176;28;20034;-81
2021/10/19 04:26:15;;;;;;;21.30;13.35;;;8.70;99.90;;;;;;4999153;28;20034;-85
2021/10/19 04:28:42;;;;;;;21.27;14.32;;;;;;;;;;5001505;28;20467;-82
2021/10/19 04:31:07;;;;;;;21.50;13.35;;;9.80;99.90;;;;;;4999805;28;20034;-83
2021/10/19 04:33:33;;;;;;;23.30;14.30;;;10.70;99.90;;;;;;4998947;28;20027;-85
2021/10/19 04:36:00;;;;;;;21.65;13.15;;;10.80;99.90;;;;;;4997529;28;20889;-82
2021/10/19 04:38:29;;;;;;;27.48;15.85;;;;;;;;;;4998028;28;20028;-83
2021/10/19 04:40:57;;;;;;;23.50;14.35;;;9.90;99.90;;;;;;4994717;28;20101;-84
2021/10/19 04:43:28;;;;;;;24.13;14.20;;;10.00;99.90;;;;;;4995605;28;20568;-82
2021/10/19 04:45:54;;;;;;;23.60;14.98;;;10.10;99.90;;;;;;4994663;28;20062;-82
2021/10/19 04:48:34;;;;;;;;;;;;;;;;;;;;;
2021/10/19 04:51:04;;;;;;;23.88;14.43;;;10.10;99.90;;;;;;4996425;28;20014;-85
2021/10/19 04:53:31;;;;;;;22.30;14.48;;;;;;;;;;4997392;28;20440;-81
2021/10/19 04:56:01;;;;;;;23.17;14.50;;;;;;;;;;4999621;28;20019;-85
2021/10/19 04:58:27;;;;;;;24.10;14.80;;;;;;;;;;4996303;28;20027;-84
2021/10/19 05:00:53;;;;;;;23.83;15.30;;;12.50;99.90;;;;;;4996230;28;20042;-83
2021/10/19 05:03:25;;;;;;;23.15;14.43;;;12.30;99.90;;;;;;4998505;28;20027;-84
2021/10/19 05:05:51;;;;;;;23.67;16.15;;;12.50;99.90;;;;;;4997570;28;20775;-85
2021/10/19 05:08:23;;;;;;;23.33;15.43;;;10.20;99.90;;;;;;4997245;28;20022;-84
2021/10/19 05:10:58;;;;;;;22.30;14.55;;;9.90;99.90;;;;;;5016107;28;20038;-83
2021/10/19 05:13:26;;;;;;;24.30;15.30;;;12.50;99.90;;;;;;4999095;28;20078;-85
2021/10/19 05:15:52;;;;;;;25.13;15.02;;;10.30;99.90;;;;;;4996480;28;20023;-85
2021/10/19 05:18:18;;;;;;;24.02;15.77;;;10.30;99.90;;;;;;4998314;28;20050;-88
2021/10/19 05:20:49;;;;;;;23.15;14.68;;;12.40;99.90;;;;;;4996510;28;20041;-83
2021/10/19 05:23:15;;;;;;;23.15;14.75;;;10.40;99.90;;;;;;4998327;28;20066;-84
2021/10/19 05:25:41;;;;;;;22.70;14.13;;;11.20;99.90;;;;;;4998207;28;20121;-84
2021/10/19 05:28:07;;;;;;;26.92;15.90;;;12.50;99.90;;;;;;5001508;28;20057;-82
2021/10/19 05:30:32;;;;;;;26.00;15.45;;;12.10;99.90;;;;;;4997225;28;20027;-81
2021/10/19 05:32:58;;;;;;;26.27;16.77;;;11.10;99.90;;;;;;4997639;28;20026;-83
2021/10/19 05:35:24;;;;;;;26.58;16.33;;;10.50;99.90;;;;;;5004120;28;20033;-83
2021/10/19 05:37:49;;;;;;;25.35;16.20;;;11.50;99.90;;;;;;4997095;28;20037;-86
2021/10/19 05:40:15;;;;;;;24.88;15.48;;;12.20;99.90;;;;;;4994684;28;20031;-82
2021/10/19 05:42:41;;;;;;;23.95;15.20;;;11.50;99.90;;;;;;4996597;28;20026;-82
2021/10/19 05:45:07;;;;;;;24.17;14.77;;;10.70;99.90;;;;;;4994104;28;20027;-83
2021/10/19 05:47:33;;;;;;;22.42;14.90;;;10.70;99.90;;;;;;4993763;28;20026;-81
2021/10/19 05:50:00;;;;;;;25.63;15.05;;;10.70;99.90;;;;;;4996171;28;20038;-84
2021/10/19 05:52:26;;;;;;;24.27;16.02;;;10.70;99.90;;;;;;4995409;28;20084;-80
2021/10/19 05:54:52;;;;;;;23.23;14.40;;;10.70;99.90;;;;;;4993149;28;20041;-81
2021/10/19 05:57:18;;;;;;;21.65;14.18;;;12.20;99.90;;;;;;4987475;28;20026;-81
2021/10/19 05:59:44;;;;;;;23.55;14.85;;;10.60;99.90;;;;;;4991375;28;20141;-82
2021/10/19 06:02:09;;;;;;;23.55;14.43;;;10.80;99.90;;;;;;4987204;28;20027;-84
2021/10/19 06:04:35;;;;;;;24.05;14.95;;;10.80;99.90;;;;;;4995881;28;20038;-85
2021/10/19 06:07:01;;;;;;;22.60;15.00;;;10.80;99.90;;;;;;5002573;28;20038;-83
2021/10/19 06:09:28;;;;;;;22.67;15.13;;;10.90;99.90;;;;;;4990721;28;20031;-84
2021/10/19 06:11:54;;;;;;;24.40;15.13;;;11.90;99.90;;;;;;4990875;28;20057;-84
2021/10/19 06:14:22;;;;;;;22.67;14.98;;;11.00;99.90;;;;;;4990947;28;20026;-83
2021/10/19 06:16:48;;;;;;;25.00;14.85;;;11.10;99.90;;;;;;4995799;28;20088;-82
2021/10/19 06:19:14;;;;;;;23.55;15.25;;;11.30;99.90;;;;;;4989230;28;20041;-83
2021/10/19 06:21:41;;;;;;;23.52;14.35;;;11.10;99.90;;;;;;4992898;28;20397;-82
2021/10/19 06:24:07;;;;;;;23.00;14.38;;;11.40;99.90;;;;;;4994834;28;20026;-85
2021/10/19 06:26:35;;;;;;;23.88;15.20;;;11.10;99.90;;;;;;4991820;28;20090;-82
2021/10/19 06:29:03;;;;;;;19.90;13.93;;;11.20;99.90;;;;;;4993179;28;20030;-82
2021/10/19 06:31:29;;;;;;;23.42;14.38;;;11.40;99.90;;;;;;4994214;28;20033;-82
2021/10/19 06:33:54;;;;;;;23.23;15.00;;;11.10;99.90;;;;;;4993807;28;20038;-84
2021/10/19 06:36:20;;;;;;;21.55;14.30;;;11.10;99.90;;;;;;4991318;28;20022;-85
2021/10/19 06:38:45;;;;;;;20.13;13.90;;;11.10;99.90;;;;;;4994430;28;20034;-83
2021/10/19 06:41:11;;;;;;;23.15;14.40;;;11.10;99.90;;;;;;4994642;28;20056;-82
2021/10/19 06:43:37;;;;;;;24.08;15.48;;;11.20;99.90;;;;;;5009893;28;20036;-82
2021/10/19 06:46:04;;;;;;;27.83;16.15;;;11.00;99.90;;;;;;4991932;28;20038;-83
2021/10/19 06:48:29;;;;;;;27.52;15.10;;;11.20;99.90;;;;;;4994029;28;20034;-83
2021/10/19 06:50:55;;;;;;;28.52;15.95;;;11.30;99.90;;;;;;4992977;28;20033;-84
2021/10/19 06:53:21;;;;;;;31.30;17.30;;;11.30;99.90;;;;;;4996819;28;20045;-83
2021/10/19 06:55:55;;;;;;;26.20;15.75;;;11.30;99.90;;;;;;5002360;28;20026;-86
2021/10/19 06:58:21;;;;;;;23.95;15.00;;;11.30;99.90;;;;;;4994910;28;20026;-84
2021/10/19 07:00:47;;;;;;;20.60;13.82;;;13.50;99.90;;;;;;4992581;28;20037;-79
2021/10/19 07:03:12;;;;;;;20.10;12.90;;;13.50;99.90;;;;;;4994952;28;20488;-82
2021/10/19 07:05:38;;;;;;;23.00;13.25;;;11.40;99.90;;;;;;4997518;28;20050;-82
2021/10/19 07:08:05;;;;;;;21.30;13.55;;;11.50;99.90;;;;;;4992400;28;20484;-81
2021/10/19 07:10:31;;;;;;;20.30;12.77;;;11.50;99.90;;;;;;4992689;28;20023;-82
2021/10/19 07:12:57;;;;;;;20.05;12.98;;;11.50;99.90;;;;;;4989407;28;20038;-83
2021/10/19 07:15:22;;;;;;;19.52;13.25;;;11.60;99.90;;;;;;4994953;28;20030;-82
2021/10/19 07:17:48;;;;;;;21.08;12.95;;;11.60;99.90;;;;;;4989973;28;20034;-81
2021/10/19 07:20:14;;;;;;;22.50;14.30;;;11.60;99.90;;;;;;4992409;28;20038;-83
2021/10/19 07:22:41;;;;;;;21.73;13.65;;;11.70;99.90;;;;;;4994085;28;20041;-83
2021/10/19 07:25:08;;;;;;;26.55;15.15;;;12.10;99.90;;;;;;4994388;28;20033;-83
2021/10/19 07:27:33;;;;;;;32.25;18.17;;;9.80;99.90;;;;;;4997985;28;20030;-81
2021/10/19 07:30:00;;;;;;;30.83;18.65;;;11.80;99.90;;;;;;4996849;28;20179;-81
2021/10/19 07:32:26;;;;;;;29.65;16.85;;;12.90;99.90;;;;;;4993021;28;20042;-81
2021/10/19 07:34:53;;;;;;;30.45;17.88;;;11.90;99.90;;;;;;4994990;28;20033;-83
2021/10/19 07:37:19;;;;;;;32.45;17.23;;;12.30;99.90;;;;;;4994018;28;20026;-82
2021/10/19 07:39:45;;;;;;;34.15;18.35;;;12.00;99.90;;;;;;4994467;28;20114;-80
2021/10/19 07:42:11;;;;;;;33.55;18.35;;;12.00;99.90;;;;;;4991185;28;20216;-82
2021/10/19 07:44:36;;;;;;;30.60;18.95;;;13.20;99.90;;;;;;4993287;28;20121;-83
2021/10/19 07:47:03;;;;;;;31.77;19.23;;;12.70;99.90;;;;;;4994739;28;20027;-85
2021/10/19 07:49:28;;;;;;;28.55;18.13;;;12.00;99.90;;;;;;4991921;28;20027;-82
2021/10/19 07:51:54;;;;;;;29.48;18.25;;;13.40;99.90;;;;;;4993349;28;20049;-80
2021/10/19 07:54:20;;;;;;;31.70;18.15;;;12.30;99.90;;;;;;4993172;28;20030;-82
2021/10/19 07:56:46;;;;;;;31.00;17.70;;;;;;;;;;4999948;28;20451;-84
2021/10/19 07:59:12;;;;;;;30.73;19.45;;;;;;;;;;5000092;28;20022;-83
2021/10/19 08:01:37;;;;;;;34.03;19.67;;;12.30;99.90;;;;;;5000840;28;20031;-81
2021/10/19 08:04:04;;;;;;;30.80;18.23;;;12.40;99.90;;;;;;5014949;28;20046;-82
2021/10/19 08:06:30;;;;;;;27.15;17.95;;;12.60;99.90;;;;;;5001094;28;20030;-84
2021/10/19 08:08:56;;;;;;;31.90;19.40;;;;;;;;;;5001769;28;20061;-85
2021/10/19 08:11:22;;;;;;;30.85;19.17;;;12.40;99.90;;;;;;4999055;28;20099;-85
2021/10/19 08:13:48;;;;;;;28.73;17.65;;;;;;;;;;5016501;28;20026;-85
2021/10/19 08:16:14;;;;;;;28.85;18.52;;;;;;;;;;4999948;28;20527;-82
2021/10/19 08:18:39;;;;;;;29.77;18.38;;;12.50;99.90;;;;;;5000617;28;20032;-83
2021/10/19 08:21:06;;;;;;;25.35;16.67;;;;;;;;;;5001010;28;20058;-85
2021/10/19 08:23:32;;;;;;;28.10;17.48;;;;;;;;;;5001226;28;20105;-83
2021/10/19 08:25:59;;;;;;;25.80;16.77;;;12.80;99.90;;;;;;4998493;28;20084;-80
2021/10/19 08:28:31;;;;;;;26.75;16.65;;;12.80;99.90;;;;;;4996676;28;20022;-81
2021/10/19 08:30:57;;;;;;;26.60;16.05;;;12.80;99.90;;;;;;4993724;28;20249;-79
2021/10/19 08:33:23;;;;;;;25.08;16.10;;;13.00;99.90;;;;;;4988608;28;20032;-82
2021/10/19 08:35:49;;;;;;;24.80;15.52;;;13.00;99.90;;;;;;4997403;28;20145;-83
2021/10/19 08:38:15;;;;;;;25.55;16.02;;;;;;;;;;4995174;28;20033;-82
2021/10/19 08:40:43;;;;;;;27.83;17.23;;;13.10;99.90;;;;;;4994350;28;20041;-79
2021/10/19 08:43:10;;;;;;;25.35;15.90;;;15.20;99.90;;;;;;4996630;28;20130;-81
2021/10/19 08:45:36;;;;;;;25.45;15.65;;;13.30;99.90;;;;;;5006635;28;20089;-80
2021/10/19 08:48:02;;;;;;;20.35;14.13;;;13.30;99.90;;;;;;4994716;28;20034;-81
2021/10/19 08:50:29;;;;;;;24.20;15.82;;;13.40;99.90;;;;;;5008083;28;20057;-84
2021/10/19 08:52:55;;;;;;;23.88;14.73;;;13.40;99.90;;;;;;5005392;28;20543;-81
2021/10/19 08:55:21;;;;;;;23.83;14.30;;;13.20;99.90;;;;;;4989887;28;20066;-81
2021/10/19 08:57:47;;;;;;;20.88;13.57;;;13.60;99.90;;;;;;4990697;28;20236;-83
2021/10/19 09:00:13;;;;;;;22.52;15.43;;;;;;;;;;4991725;28;20194;-84
2021/10/19 09:02:45;;;;;;;21.00;14.57;;;14.20;99.90;;;;;;4993963;28;20034;-82
2021/10/19 09:05:26;;;;;;;24.80;15.20;;;13.60;99.90;;;;;;4995408;28;20100;-84
2021/10/19 09:07:56;;;;;;;;;;;13.70;99.90;;;;;;4990129;28;20026;-83
2021/10/19 09:10:22;;;;;;;22.63;14.07;;;12.20;99.90;;;;;;4994165;28;19909;-83
2021/10/19 09:12:59;;;;;;;24.60;14.40;;;13.80;99.90;;;;;;4991291;28;20069;-85
2021/10/19 09:15:28;;;;;;;19.23;13.38;;;13.80;99.90;;;;;;4993844;28;20030;-83
2021/10/19 09:18:03;;;;;;;20.17;13.00;;;14.30;99.90;;;;;;4996969;28;20038;-79
2021/10/19 09:20:35;;;;;;;18.52;13.88;;;14.10;99.90;;;;;;4995992;28;20030;-81
2021/10/19 09:23:02;;;;;;;20.15;13.38;;;14.20;99.90;;;;;;5003768;28;20104;-84
2021/10/19 09:25:37;;;;;;;18.17;12.68;;;14.40;99.90;;;;;;5001066;28;20030;-83
2021/10/19 09:28:04;;;;;;;18.95;12.27;;;16.20;99.90;;;;;;5005949;28;20026;-84
2021/10/19 09:30:43;;;;;;;16.67;11.75;;;14.50;99.90;;;;;;4999614;28;20034;-84
2021/10/19 09:33:18;;;;;;;17.85;12.98;;;14.70;99.90;;;;;;4994875;28;20061;-82
2021/10/19 09:35:48;;;;;;;18.05;11.75;;;14.90;99.90;;;;;;4996597;28;20026;-80
2021/10/19 09:38:14;;;;;;;19.20;11.98;;;14.90;99.90;;;;;;4997669;28;20026;-83
2021/10/19 09:40:46;;;;;;;15.68;10.90;;;15.00;99.90;;;;;;5002520;28;20131;-82
2021/10/19 09:43:18;;;;;;;16.10;11.10;;;15.30;99.90;;;;;;4999896;28;20038;-84
2021/10/19 09:45:50;;;;;;;15.75;10.95;;;15.40;99.90;;;;;;5019808;28;20086;-82
2021/10/19 09:48:18;;;;;;;15.90;11.07;;;14.40;99.90;;;;;;4998936;28;20038;-82
2021/10/19 09:50:46;;;;;;;16.25;11.10;;;15.50;99.90;;;;;;5000779;28;20038;-83
2021/10/19 09:53:15;;;;;;;15.75;10.98;;;16.90;99.90;;;;;;5001309;28;20037;-83
2021/10/19 09:55:42;;;;;;;15.38;10.20;;;17.30;99.90;;;;;;5015309;28;20626;-82
2021/10/19 09:58:08;;;;;;;18.65;10.35;;;15.60;99.90;;;;;;5002204;28;20023;-85
2021/10/19 10:00:34;;;;;;;16.75;10.77;;;17.70;99.90;;;;;;5003867;28;20038;-82
2021/10/19 10:03:03;;;;;;;14.48;9.85;;;15.50;99.90;;;;;;5000227;28;20037;-84
2021/10/19 10:05:30;;;;;;;13.05;9.35;;;16.20;99.90;;;;;;4998903;28;20030;-84
2021/10/19 10:07:56;;;;;;;15.82;10.35;;;16.40;99.90;;;;;;5000407;28;20033;-84
2021/10/19 10:10:26;;;;;;;17.80;9.55;;;16.20;99.90;;;;;;5003626;28;20132;-84
2021/10/19 10:13:14;;;;;;;15.55;9.85;;;15.80;99.90;;;;;;5002783;28;20062;-85
2021/10/19 10:15:40;;;;;;;13.77;8.90;;;15.90;99.90;;;;;;5018264;28;20123;-86
2021/10/19 10:18:09;;;;;;;13.18;9.20;;;15.80;99.90;;;;;;5011209;28;20034;-85
2021/10/19 10:20:43;;;;;;;15.38;9.65;;;16.00;99.90;;;;;;5010796;28;20029;-82
2021/10/19 10:23:24;;;;;;;16.75;10.88;;;16.10;99.90;;;;;;4999121;28;20027;-83
2021/10/19 10:25:56;;;;;;;12.65;9.20;;;16.20;99.90;;;;;;5002163;28;20044;-84
2021/10/19 10:28:27;;;;;;;14.27;10.07;;;16.70;99.90;;;;;;4998416;28;20022;-82
2021/10/19 10:30:56;;;;;;;15.35;9.13;;;16.30;99.90;;;;;;5004910;28;20090;-83
2021/10/19 10:33:39;;;;;;;11.70;8.85;;;16.20;99.90;;;;;;5000496;28;20045;-82
2021/10/19 10:36:10;;;;;;;14.10;9.85;;;16.10;99.90;;;;;;5003372;28;20034;-84
2021/10/19 10:38:37;;;;;;;12.40;9.20;;;16.10;99.90;;;;;;5004254;28;20432;-80
2021/10/19 10:41:14;;;;;;;13.13;9.25;;;17.50;99.90;;;;;;5002022;28;20026;-83
2021/10/19 10:43:41;;;;;;;15.32;9.02;;;16.00;99.90;;;;;;5009328;28;20041;-81
2021/10/19 10:46:20;;;;;;;15.27;9.32;;;15.50;99.90;;;;;;5018582;28;20038;-84
2021/10/19 10:48:47;;;;;;;14.82;8.77;;;15.80;99.90;;;;;;5019620;28;20031;-81
2021/10/19 10:51:24;;;;;;;16.33;10.07;;;15.80;99.90;;;;;;5006571;28;20027;-82
2021/10/19 10:53:49;;;;;;;16.10;9.63;;;15.80;99.90;;;;;;5006474;28;20037;-83
2021/10/19 10:56:16;;;;;;;13.43;9.18;;;15.60;99.90;;;;;;5008372;28;20396;-82
2021/10/19 10:58:43;;;;;;;13.63;9.07;;;15.70;99.90;;;;;;5005117;28;20057;-83
2021/10/19 11:01:22;;;;;;;12.55;9.27;;;15.80;99.90;;;;;;5002834;28;20109;-83
2021/10/19 11:03:52;;;;;;;15.07;8.73;;;15.90;99.90;;;;;;5020913;28;20022;-85
2021/10/19 11:06:20;;;;;;;11.60;8.43;;;15.80;99.90;;;;;;5026671;28;20116;-84
2021/10/19 11:09:07;;;;;;;15.60;9.02;;;16.10;99.90;;;;;;5007727;28;20061;-82
2021/10/19 11:11:37;;;;;;;12.98;8.98;;;16.10;99.90;;;;;;5001518;28;20100;-85
2021/10/19 11:14:06;;;;;;;13.30;8.60;;;16.10;99.90;;;;;;5009838;28;20369;-82
2021/10/19 11:16:39;;;;;;;13.40;8.45;;;16.30;99.90;;;;;;5032466;28;20026;-85
2021/10/19 11:19:26;;;;;;;12.80;8.48;;;16.90;99.90;;;;;;5008247;28;20101;-82
2021/10/19 11:21:58;;;;;;;13.63;8.45;;;17.10;99.90;;;;;;5016680;28;20065;-82
2021/10/19 11:24:28;;;;;;;12.23;8.30;;;17.00;99.90;;;;;;5022963;28;20030;-81
2021/10/19 11:26:54;;;;;;;11.40;8.23;;;16.90;99.90;;;;;;5005078;28;20033;-82
2021/10/19 11:29:20;;;;;;;12.45;7.63;;;16.40;99.90;;;;;;5019693;28;20042;-82
2021/10/19 11:31:48;;;;;;;11.27;8.38;;;18.20;99.90;;;;;;5005079;28;20030;-82
2021/10/19 11:34:14;;;;;;;11.82;7.72;;;16.60;99.90;;;;;;5006669;28;20030;-86
2021/10/19 11:36:39;;;;;;;17.17;9.18;;;16.80;99.90;;;;;;5005778;28;20041;-84
2021/10/19 11:39:12;;;;;;;13.82;8.90;;;16.60;99.90;;;;;;5004163;28;20029;-84
2021/10/19 11:41:57;;;;;;;13.98;9.23;;;16.50;99.90;;;;;;5005563;28;20036;-81
2021/10/19 11:44:37;;;;;;;14.73;8.40;;;16.60;99.90;;;;;;5005196;28;20022;-83
2021/10/19 11:47:05;;;;;;;12.93;8.30;;;16.60;99.90;;;;;;5005972;28;20022;-85
2021/10/19 11:49:37;;;;;;;11.40;7.35;;;16.70;99.90;;;;;;5006698;28;20030;-82
2021/10/19 11:52:03;;;;;;;10.65;7.70;;;16.70;99.90;;;;;;5015833;28;20034;-79
2021/10/19 11:54:31;;;;;;;11.68;7.45;;;16.80;99.90;;;;;;4999634;28;20027;-83
2021/10/19 11:57:04;;;;;;;12.25;8.32;;;17.50;99.90;;;;;;5002889;28;20026;-82
2021/10/19 11:59:48;;;;;;;15.95;7.82;;;17.00;99.90;;;;;;5000871;28;20480;-81
2021/10/19 12:02:15;;;;;;;13.27;8.73;;;16.20;99.90;;;;;;5007222;28;20040;-82
2021/10/19 12:04:46;;;;;;;10.82;7.47;;;17.10;99.90;;;;;;5004329;28;20498;-86
2021/10/19 12:07:25;;;;;;;12.77;7.20;;;17.30;99.90;;;;;;5006857;28;20109;-81
2021/10/19 12:09:51;;;;;;;9.88;6.45;;;17.50;99.90;;;;;;5001034;28;20521;-83
2021/10/19 12:12:24;;;;;;;11.45;6.93;;;17.20;99.90;;;;;;5017496;28;20101;-84
2021/10/19 12:14:57;;;;;;;9.80;7.10;;;17.90;99.90;;;;;;5002176;28;20057;-83
2021/10/19 12:17:23;;;;;;;9.90;6.43;;;17.80;99.90;;;;;;5016507;28;20041;-81
2021/10/19 12:19:56;;;;;;;9.95;6.65;;;18.40;99.90;;;;;;4999431;28;20078;-85
2021/10/19 12:22:30;;;;;;;11.52;6.45;;;20.10;99.90;;;;;;5003368;28;20061;-83
2021/10/19 12:24:56;;;;;;;11.32;7.13;;;16.90;99.90;;;;;;5001756;28;20027;-83
2021/10/19 12:27:22;;;;;;;10.68;6.38;;;16.60;99.90;;;;;;5006071;28;20037;-82
2021/10/19 12:29:53;;;;;;;11.57;6.90;;;18.30;99.90;;;;;;5020357;28;20070;-83
2021/10/19 12:32:31;;;;;;;10.55;6.70;;;18.30;99.90;;;;;;5009242;28;20702;-82
2021/10/19 12:34:59;;;;;;;9.07;6.30;;;18.30;99.90;;;;;;5004827;28;20053;-85
2021/10/19 12:37:32;;;;;;;9.55;6.47;;;18.30;99.90;;;;;;5008072;28;20038;-85
2021/10/19 12:39:59;;;;;;;9.60;6.40;;;19.80;99.90;;;;;;5017463;28;20030;-88
2021/10/19 12:42:25;;;;;;;8.85;6.32;;;18.40;99.90;;;;;;5015525;28;20391;-81
2021/10/19 12:44:50;;;;;;;9.57;5.75;;;18.60;99.90;;;;;;5027199;28;20032;-82
2021/10/19 12:47:16;;;;;;;7.90;5.80;;;18.50;99.90;;;;;;5006392;28;20022;-82